x

Halibut Bank (46146) Wave Buoy

11:00 - Wed 29th Mar 2017 All times are PDT. -7 hours from GMT.

  • Sig Wave height 2.3ft
  • Peak Period 4s
  • Wind
    18mph, 25mph gusts
  • Sea Temp 46°f
  • Air Temp 45°f
  • Sea Pressure 1006.9mb
  • Halibut Bank
  • Halibut Bank

More Historic Weather Station data

Upgrade to MSW Pro to gain access to the past 30 days of data for over 8000 Wavebouys and Weather Stations around the globe.

Join Pro

Comparision Forecast

View Surf forecast
   
mer. 03/29 11:00 2.5ft 4s 18 25 mph 1006.9mb 46f 45f
10:00 2.5ft 4s 20 25 mph 1006.9mb 46f 45f
9:00 2.5ft 4s 22 27 mph 1007.3mb 46f 45f
8:00 3ft 4s 22 27 mph 1008.3mb 46f 46f
7:00 3ft 4s 25 29 mph 1009.5mb 46f 46f
6:00 3.5ft 4s 25 29 mph 1010.8mb 46f 46f
5:00 3.5ft 4s 25 31 mph 1012mb 46f 46f
4:00 3.5ft 4s 22 29 mph 1013.1mb 46f 46f
3:00 3ft 3s 27 31 mph 1014.4mb 46f 46f
2:00 2.5ft 3s 27 31 mph 1015.3mb 46f 46f
1:00 2ft 3s 22 27 mph 1016.6mb 46f 46f
12:00 1.6ft 3s 20 25 mph 1017.2mb 46f 46f
mar. 03/28 11:00 2ft 3s 18 25 mph 1017.9mb 46f 46f
10:00 1.6ft 3s 20 22 mph 1018.2mb 46f 46f
9:00 1.6ft 3s 18 22 mph 1018.7mb 46f 46f
8:00 1.6ft 3s 20 25 mph 1018.6mb 46f 47f
7:00 2ft 4s 22 25 mph 1018.5mb 46f 47f
6:00 2.5ft 4s 20 25 mph 1018.6mb 46f 46f
5:00 2.5ft 4s 20 25 mph 1018.9mb 46f 46f
4:00 2.5ft 4s 22 27 mph 1018.9mb 46f 46f
3:00 3ft 4s 22 27 mph 1019.2mb 46f 46f
2:00 3.5ft 4s 22 25 mph 1019.7mb 46f 46f
1:00 3.5ft 4s 25 29 mph 1019.5mb 46f 46f
12:00  -   -  27
mph
1019.2mb - 46f
11:00 3.5ft 4s 25 31 mph 1018.9mb 46f 46f
10:00 4.5ft 4s 27 34 mph 1018.6mb 46f 46f
9:00 3.5ft 4s 27 31 mph 1018.1mb 46f 46f
8:00 3.5ft 4s 27 34 mph 1017.9mb 46f 46f
7:00 3.5ft 4s 25 29 mph 1018.1mb 46f 46f
6:00 3ft 4s 25 29 mph 1018.2mb 47f 46f
5:00 2.5ft 3s 22 27 mph 1019mb 47f 46f
4:00 2.5ft 4s 22 29 mph 1019.1mb 46f 46f
3:00 3ft 4s 22 27 mph 1019.5mb 47f 46f
2:00 2.5ft 4s 22 27 mph 1019.7mb 47f 46f
1:00 2ft 3s 20 25 mph 1020.2mb 47f 47f
12:00 2ft 3s 18 22 mph 1020.5mb 47f 47f
lun. 03/27 11:00 1.6ft 3s 18 22 mph 1020.7mb 47f 47f
10:00 1.3ft 3s 18 20 mph 1020.6mb 47f 48f
9:00 1ft 2s 16 18 mph 1020mb 47f 48f
8:00 1.3ft 3s 13 16 mph 1019.8mb 47f 49f
7:00 1ft 3s 13 18 mph 1019.1mb 47f 49f
6:00 1.3ft 3s 9 11 mph 1018.8mb 47f 49f
5:00 1.3ft 3s 16 18 mph 1018.3mb 47f 49f
4:00 1.6ft 3s 16 20 mph 1018.3mb 47f 48f
3:00 1.6ft 3s 16 18 mph 1018.4mb 47f 48f
2:00 1.6ft 3s 16 18 mph 1018.3mb 47f 47f
1:00 1.6ft 3s 18 20 mph 1017.6mb 47f 47f
12:00 1.6ft 3s 18 20 mph 1017.1mb 46f 46f
11:00 1.6ft 3s 18 20 mph 1016.3mb 46f 46f
10:00 1.6ft 3s 20 22 mph 1015.1mb 46f 46f
9:00 2ft 3s 18 20 mph 1014.5mb 46f 46f
8:00 2ft 3s 20 22 mph 1013.1mb 46f 46f
7:00 2ft 4s 20 22 mph 1012.7mb 46f 46f
6:00 2ft 3s 20 22 mph 1011.8mb 46f 46f
5:00 2ft 3s 20 25 mph 1011.1mb 46f 46f
4:00 2ft 3s 22 25 mph 1010.4mb 46f 46f
3:00 1.6ft 3s 18 20 mph 1010.2mb 46f 45f
2:00 1.3ft 3s 18 20 mph 1009.8mb 46f 45f
1:00 1.3ft 2s 18 20 mph 1009.3mb 46f 45f
12:00 1.6ft 3s 18 20 mph 1008.9mb 46f 45f
dim. 03/26 11:00 1.6ft 3s 18 22 mph 1008.4mb 46f 45f
10:00 2ft 3s 18 22 mph 1007.5mb 46f 45f
9:00 2ft 3s 18 22 mph 1007.2mb 46f 46f
8:00 2ft 4s 18 22 mph 1006.7mb 46f 45f
7:00 2ft 4s 18 25 mph 1006.2mb 46f 46f
6:00 2ft 3s 20 22 mph 1005.8mb 46f 46f
5:00 2ft 3s 18 22 mph 1005.8mb 46f 47f
4:00 2ft 3s 18 22 mph 1005.7mb 46f 47f
3:00 2.5ft 4s 16 18 mph 1006.4mb 46f 46f
2:00 3.5ft 4s 22 25 mph 1006.6mb 46f 44f
1:00 4ft 4s 29 36 mph 1006.8mb 46f 43f
12:00 3.5ft 4s 29 34 mph 1007.6mb 46f 43f
11:00 3ft 4s 27 31 mph 1008.1mb 46f 44f
10:00 2.5ft 3s 22 25 mph 1008.7mb 46f 44f
9:00 1.6ft 3s 20 22 mph 1008.9mb 46f 44f
8:00 1.3ft 3s 16 18 mph 1009.4mb 46f 45f
7:00 1.6ft 3s 16 18 mph 1009.7mb 46f 46f
6:00 1.6ft 3s 16 20 mph 1010.2mb 46f 45f
5:00 1.6ft 3s 18 20 mph 1011.4mb 46f 45f
4:00 1.6ft 3s 16 18 mph 1012.9mb 46f 45f
3:00 1.3ft 3s 18 20 mph 1013.8mb 47f 46f
2:00 1ft 3s 16 18 mph 1014.8mb 46f 46f
1:00 0.7ft 2s 13 16 mph 1015.3mb 46f 46f
12:00 0.7ft 2s 9 11 mph 1015.9mb 46f 46f
sam. 03/25 11:00 0.7ft 3s 11
mph
1016.3mb 46f 46f
10:00 0.7ft 2s 9 11 mph 1016.6mb 47f 46f
9:00 0.7ft 2s 9 11 mph 1016.9mb 47f 47f
8:00 0.3ft 2s 11
mph
1017mb 47f 47f